createdAt,value
2023-06-17T00:00:08.917Z,5.73
2023-06-17T00:03:11.637Z,6.40
2023-06-17T00:06:14.362Z,5.50
2023-06-17T00:09:16.563Z,5.60
2023-06-17T00:12:19.401Z,5.00
2023-06-17T00:15:21.891Z,5.43
2023-06-17T00:18:25.731Z,5.07
2023-06-17T00:21:28.065Z,5.35
2023-06-17T00:24:30.918Z,5.45
2023-06-17T00:27:33.417Z,5.75
2023-06-17T00:30:35.824Z,5.40
2023-06-17T00:33:38.001Z,5.83
2023-06-17T00:36:40.189Z,6.03
2023-06-17T00:39:42.422Z,6.43
2023-06-17T00:42:44.629Z,6.57
2023-06-17T00:45:47.435Z,5.80
2023-06-17T00:48:49.659Z,5.70
2023-06-17T00:52:08.458Z,5.82
2023-06-17T00:55:14.927Z,4.82
2023-06-17T00:58:17.360Z,5.35
2023-06-17T01:01:20.324Z,4.63
2023-06-17T01:04:22.964Z,5.40
2023-06-17T01:07:36.848Z,5.22
2023-06-17T01:11:02.348Z,5.63
2023-06-17T01:14:05.236Z,6.10
2023-06-17T01:17:13.713Z,5.40
2023-06-17T01:20:16.740Z,5.70
2023-06-17T01:23:19.788Z,5.45
2023-06-17T01:26:22.979Z,4.53
2023-06-17T01:29:33.934Z,5.20
2023-06-17T01:32:36.702Z,5.40
2023-06-17T01:35:42.466Z,5.20
2023-06-17T01:38:52.155Z,5.35
2023-06-17T01:41:56.291Z,6.18
2023-06-17T01:45:06.372Z,5.28
2023-06-17T01:48:08.898Z,5.07
2023-06-17T01:51:13.086Z,6.60
2023-06-17T01:54:15.417Z,5.70
2023-06-17T01:57:17.870Z,5.35
2023-06-17T02:00:20.897Z,5.20
2023-06-17T02:03:30.105Z,5.67
2023-06-17T02:06:32.392Z,5.20
2023-06-17T02:09:34.666Z,4.97
2023-06-17T02:12:36.891Z,5.35
2023-06-17T02:15:43.458Z,4.47
2023-06-17T02:18:49.510Z,3.90
2023-06-17T02:21:51.821Z,3.73
2023-06-17T02:24:54.273Z,3.92
2023-06-17T02:27:56.485Z,3.15
2023-06-17T02:30:58.836Z,3.15
2023-06-17T02:34:02.550Z,3.03
2023-06-17T02:37:05.189Z,3.37
2023-06-17T02:40:10.148Z,4.25
2023-06-17T02:43:12.647Z,2.88
2023-06-17T02:46:14.928Z,3.47
2023-06-17T02:49:17.806Z,3.13
2023-06-17T02:52:20.232Z,2.80
2023-06-17T02:55:23.348Z,2.88
2023-06-17T02:58:27.057Z,3.45
2023-06-17T03:01:31.649Z,3.80
2023-06-17T03:04:36.771Z,3.67
2023-06-17T03:07:41.520Z,3.50
2023-06-17T03:10:45.080Z,3.35
2023-06-17T03:13:49.451Z,3.63
2023-06-17T03:17:00.791Z,4.47
2023-06-17T03:20:07.043Z,4.10
2023-06-17T03:23:10.059Z,4.23
2023-06-17T03:26:12.466Z,3.80
2023-06-17T03:29:16.522Z,4.93
2023-06-17T03:32:19.141Z,5.75
2023-06-17T03:35:21.853Z,4.37
2023-06-17T03:38:24.170Z,4.07
2023-06-17T03:41:27.351Z,4.32
2023-06-17T03:44:29.883Z,3.90
2023-06-17T03:47:32.473Z,3.85
2023-06-17T03:50:36.030Z,4.37
2023-06-17T03:53:39.061Z,4.60
2023-06-17T03:56:41.360Z,4.43
2023-06-17T03:59:44.222Z,4.03
2023-06-17T04:02:47.099Z,4.32
2023-06-17T04:06:00.701Z,4.50
2023-06-17T04:09:04.575Z,4.53
2023-06-17T04:12:08.367Z,4.50
2023-06-17T04:15:11.235Z,4.45
2023-06-17T04:18:13.594Z,5.22
2023-06-17T04:21:16.728Z,4.33
2023-06-17T04:24:19.310Z,4.03
2023-06-17T04:27:21.861Z,4.68
2023-06-17T04:30:26.216Z,3.72
2023-06-17T04:33:31.876Z,5.05
2023-06-17T04:36:35.774Z,5.10
2023-06-17T04:39:40.595Z,3.30
2023-06-17T04:42:46.213Z,4.30
2023-06-17T04:45:48.817Z,4.32
2023-06-17T04:48:51.714Z,4.10
2023-06-17T04:51:53.864Z,3.90
2023-06-17T04:54:56.897Z,5.07
2023-06-17T04:57:59.587Z,8.88
2023-06-17T05:01:12.473Z,5.47
2023-06-17T05:04:15.691Z,4.63
2023-06-17T05:07:17.951Z,4.07
2023-06-17T05:10:20.459Z,4.30
2023-06-17T05:13:23.865Z,3.72
2023-06-17T05:16:27.872Z,4.22
2023-06-17T05:19:30.509Z,3.83
2023-06-17T05:22:32.760Z,4.27
2023-06-17T05:25:35.036Z,4.27
2023-06-17T05:28:37.306Z,4.05
2023-06-17T05:31:39.678Z,4.15
2023-06-17T05:34:41.958Z,4.05
2023-06-17T05:37:44.175Z,4.43
2023-06-17T05:40:46.389Z,4.47
2023-06-17T05:43:49.610Z,4.15
2023-06-17T05:46:51.968Z,5.80
2023-06-17T05:49:54.278Z,6.80
2023-06-17T05:52:56.470Z,4.40
2023-06-17T05:55:58.607Z,4.80
2023-06-17T05:59:00.988Z,4.00
2023-06-17T06:02:13.254Z,4.13
2023-06-17T06:05:15.585Z,3.78
2023-06-17T06:08:17.839Z,4.77
2023-06-17T06:11:20.012Z,4.33
2023-06-17T06:14:22.391Z,4.28
2023-06-17T06:17:26.011Z,4.10
2023-06-17T06:20:28.451Z,4.60
2023-06-17T06:23:31.046Z,4.70
2023-06-17T06:26:34.509Z,4.10
2023-06-17T06:29:36.886Z,3.90
2023-06-17T06:32:39.170Z,4.05
2023-06-17T06:35:42.890Z,4.53
2023-06-17T06:38:49.135Z,4.00
2023-06-17T06:41:51.284Z,4.30
2023-06-17T06:45:04.487Z,3.97
2023-06-17T06:48:06.732Z,4.53
2023-06-17T06:51:09.033Z,4.22
2023-06-17T06:54:11.723Z,3.60
2023-06-17T06:57:13.926Z,3.63
2023-06-17T07:00:16.619Z,4.22
2023-06-17T07:03:21.159Z,3.80
2023-06-17T07:06:23.586Z,4.22
2023-06-17T07:09:26.531Z,3.80
2023-06-17T07:12:28.753Z,4.07
2023-06-17T07:15:30.972Z,3.53
2023-06-17T07:18:33.181Z,3.50
2023-06-17T07:21:35.482Z,3.25
2023-06-17T07:24:37.908Z,3.87
2023-06-17T07:27:40.249Z,2.77
2023-06-17T07:30:42.967Z,3.38
2023-06-17T07:33:45.512Z,3.33
2023-06-17T07:36:53.533Z,2.80
2023-06-17T07:39:57.620Z,3.00
2023-06-17T07:42:59.945Z,3.40
2023-06-17T07:46:02.101Z,3.55
2023-06-17T07:49:04.313Z,2.75
2023-06-17T07:52:06.690Z,3.15
2023-06-17T07:55:10.082Z,3.00
2023-06-17T07:58:12.438Z,3.10
2023-06-17T08:01:14.780Z,3.33
2023-06-17T08:04:17.050Z,4.53
2023-06-17T08:07:21.429Z,3.40
2023-06-17T08:10:23.899Z,2.53
2023-06-17T08:13:26.146Z,2.53
2023-06-17T08:16:28.338Z,2.90
2023-06-17T08:19:30.644Z,4.68
2023-06-17T08:22:32.786Z,4.10
2023-06-17T08:25:35.032Z,4.23
2023-06-17T08:28:37.286Z,3.23
2023-06-17T08:31:39.879Z,3.45
2023-06-17T08:34:42.949Z,3.50
2023-06-17T08:37:45.167Z,2.78
2023-06-17T08:40:47.464Z,3.07
2023-06-17T08:43:52.513Z,2.33
2023-06-17T08:46:54.618Z,3.50
2023-06-17T08:49:57.394Z,3.00
2023-06-17T08:52:59.987Z,2.30
2023-06-17T08:56:02.649Z,2.77
2023-06-17T08:59:04.769Z,3.70
2023-06-17T09:02:06.882Z,3.22
2023-06-17T09:05:09.160Z,3.38
2023-06-17T09:08:11.663Z,3.10
2023-06-17T09:11:13.982Z,3.63
2023-06-17T09:14:17.501Z,2.30
2023-06-17T09:17:32.890Z,3.20
2023-06-17T09:20:35.638Z,3.22
2023-06-17T09:23:37.753Z,4.03
2023-06-17T09:26:43.623Z,2.60
2023-06-17T09:29:46.642Z,3.10
2023-06-17T09:32:53.138Z,2.80
2023-06-17T09:36:02.174Z,2.35
2023-06-17T09:39:06.501Z,2.60
2023-06-17T09:42:10.103Z,2.40
2023-06-17T09:45:14.069Z,2.90
2023-06-17T09:48:17.787Z,2.90
2023-06-17T09:51:23.033Z,2.65
2023-06-17T09:54:25.540Z,2.70
2023-06-17T09:57:32.604Z,2.40
2023-06-17T10:00:34.986Z,2.40
2023-06-17T10:03:38.974Z,2.65
2023-06-17T10:06:41.657Z,2.38
2023-06-17T10:09:43.906Z,2.40
2023-06-17T10:12:46.451Z,2.57
2023-06-17T10:15:49.015Z,2.70
2023-06-17T10:18:52.716Z,2.80
2023-06-17T10:21:55.896Z,2.78
2023-06-17T10:24:57.981Z,2.70
2023-06-17T10:28:02.102Z,2.93
2023-06-17T10:31:19.541Z,3.27
2023-06-17T10:34:22.787Z,2.95
2023-06-17T10:37:28.179Z,2.70
2023-06-17T10:40:31.991Z,3.63
2023-06-17T10:43:39.899Z,2.87
2023-06-17T10:46:42.057Z,2.87
2023-06-17T10:49:44.362Z,2.72
2023-06-17T10:52:46.794Z,3.08
2023-06-17T10:55:49.034Z,3.50
2023-06-17T10:58:51.141Z,3.10
2023-06-17T11:01:54.013Z,3.10
2023-06-17T11:04:57.394Z,3.05
2023-06-17T11:07:59.562Z,3.03
2023-06-17T11:11:11.910Z,3.30
2023-06-17T11:14:18.490Z,3.47
2023-06-17T11:17:20.826Z,3.03
2023-06-17T11:20:23.393Z,3.33
2023-06-17T11:23:27.489Z,3.30
2023-06-17T11:26:29.740Z,3.38
2023-06-17T11:29:32.370Z,3.30
2023-06-17T11:32:35.582Z,5.83
2023-06-17T11:35:38.160Z,5.00
2023-06-17T11:38:40.899Z,5.28
2023-06-17T11:41:43.030Z,4.05
2023-06-17T11:44:45.928Z,4.03
2023-06-17T11:47:48.205Z,3.57
2023-06-17T11:50:50.818Z,3.83
2023-06-17T11:53:53.067Z,3.60
2023-06-17T11:56:56.101Z,3.80
2023-06-17T11:59:59.653Z,3.33
2023-06-17T12:03:02.068Z,4.00
2023-06-17T12:06:04.512Z,4.40
2023-06-17T12:09:07.541Z,3.42
2023-06-17T12:12:11.752Z,4.03
2023-06-17T12:15:17.415Z,3.97
2023-06-17T12:18:20.022Z,3.67
2023-06-17T12:21:22.534Z,3.80
2023-06-17T12:24:24.948Z,3.80
2023-06-17T12:27:30.537Z,3.30
2023-06-17T12:30:34.940Z,3.83
2023-06-17T12:33:37.796Z,4.20
2023-06-17T12:36:39.951Z,4.25
2023-06-17T12:39:42.744Z,4.25
2023-06-17T12:42:45.010Z,4.07
2023-06-17T12:45:47.209Z,4.50
2023-06-17T12:48:50.007Z,4.97
2023-06-17T12:51:52.219Z,4.80
2023-06-17T12:54:57.784Z,4.97
2023-06-17T12:58:00.237Z,4.45
2023-06-17T13:01:02.517Z,4.83
2023-06-17T13:04:04.814Z,4.40
2023-06-17T13:07:06.969Z,4.78
2023-06-17T13:10:09.962Z,4.63
2023-06-17T13:13:12.222Z,4.32
2023-06-17T13:16:14.415Z,5.17
2023-06-17T13:19:17.428Z,4.87
2023-06-17T13:22:20.452Z,5.38
2023-06-17T13:25:22.579Z,5.18
2023-06-17T13:28:24.743Z,4.97
2023-06-17T13:31:27.515Z,5.53
2023-06-17T13:34:29.756Z,5.20
2023-06-17T13:37:32.579Z,5.80
2023-06-17T13:40:34.722Z,5.03
2023-06-17T13:43:36.989Z,4.97
2023-06-17T13:46:39.245Z,5.63
2023-06-17T13:49:42.123Z,5.60
2023-06-17T13:52:44.841Z,4.93
2023-06-17T13:55:47.161Z,6.13
2023-06-17T13:58:49.398Z,4.40
2023-06-17T14:01:51.619Z,4.80
2023-06-17T14:04:53.888Z,5.27
2023-06-17T14:07:56.175Z,5.20
2023-06-17T14:10:58.977Z,5.18
2023-06-17T14:14:01.446Z,5.75
2023-06-17T14:17:03.764Z,5.87
2023-06-17T14:20:06.531Z,5.77
2023-06-17T14:23:09.178Z,6.20
2023-06-17T14:26:11.361Z,5.07
2023-06-17T14:29:13.492Z,5.72
2023-06-17T14:32:16.039Z,6.00
2023-06-17T14:35:19.245Z,5.97
2023-06-17T14:38:21.362Z,6.28
2023-06-17T14:41:23.531Z,5.90
2023-06-17T14:44:26.353Z,6.07
2023-06-17T14:47:28.766Z,6.17
2023-06-17T14:50:31.093Z,6.17
2023-06-17T14:53:34.091Z,5.90
2023-06-17T14:56:36.807Z,6.25
2023-06-17T14:59:39.275Z,6.18
2023-06-17T15:02:45.954Z,6.43
2023-06-17T15:05:48.170Z,6.70
2023-06-17T15:08:50.981Z,6.75
2023-06-17T15:12:19.031Z,6.15
2023-06-17T15:15:21.451Z,6.55
2023-06-17T15:18:23.819Z,6.23
2023-06-17T15:21:26.094Z,6.50
2023-06-17T15:24:28.328Z,6.70
2023-06-17T15:27:30.597Z,5.80
2023-06-17T15:30:32.734Z,6.32
2023-06-17T15:33:34.866Z,6.07
2023-06-17T15:36:37.057Z,6.80
2023-06-17T15:39:39.290Z,7.30
2023-06-17T15:42:43.719Z,6.18
2023-06-17T15:45:47.343Z,6.53
2023-06-17T15:48:49.485Z,6.63
2023-06-17T15:51:51.656Z,6.50
2023-06-17T15:54:54.218Z,7.07
2023-06-17T15:57:56.417Z,6.78
2023-06-17T16:00:59.988Z,7.18
2023-06-17T16:04:16.898Z,6.90
2023-06-17T16:07:34.574Z,8.03
2023-06-17T16:10:36.706Z,7.05
2023-06-17T16:13:38.948Z,7.03
2023-06-17T16:16:41.300Z,7.03
2023-06-17T16:19:43.677Z,7.07
2023-06-17T16:22:45.907Z,7.33
2023-06-17T16:25:55.381Z,6.78
2023-06-17T16:28:58.087Z,7.18
2023-06-17T16:32:00.281Z,6.85
2023-06-17T16:35:02.355Z,7.60
2023-06-17T16:38:04.861Z,7.87
2023-06-17T16:41:06.983Z,8.35
2023-06-17T16:44:09.421Z,7.70
2023-06-17T16:47:11.591Z,7.25
2023-06-17T16:50:13.825Z,7.80
2023-06-17T16:53:17.821Z,7.93
2023-06-17T16:56:20.045Z,8.43
2023-06-17T16:59:23.111Z,8.38
2023-06-17T17:02:25.532Z,8.07
2023-06-17T17:05:27.733Z,7.70
2023-06-17T17:08:31.128Z,8.53
2023-06-17T17:11:33.302Z,8.23
2023-06-17T17:14:35.913Z,8.98
2023-06-17T17:17:38.110Z,8.48
2023-06-17T17:20:40.352Z,7.93
2023-06-17T17:23:42.561Z,8.60
2023-06-17T17:26:44.764Z,8.48
2023-06-17T17:29:47.728Z,8.32
2023-06-17T17:32:50.074Z,8.02
2023-06-17T17:35:52.435Z,8.63
2023-06-17T17:38:54.554Z,8.63
2023-06-17T17:41:56.721Z,8.60
2023-06-17T17:44:58.929Z,8.32
2023-06-17T17:48:01.627Z,8.77
2023-06-17T17:51:03.856Z,9.37
2023-06-17T17:54:06.012Z,10.17
2023-06-17T17:57:10.063Z,10.23
2023-06-17T18:00:13.328Z,9.80
2023-06-17T18:03:17.127Z,9.32
2023-06-17T18:06:19.684Z,9.93
2023-06-17T18:09:22.009Z,9.60
2023-06-17T18:12:24.533Z,8.52
2023-06-17T18:15:26.666Z,9.10
2023-06-17T18:18:28.888Z,9.48
2023-06-17T18:21:31.875Z,9.40
2023-06-17T18:24:34.221Z,10.33
2023-06-17T18:27:37.238Z,10.88
2023-06-17T18:30:40.039Z,10.55
2023-06-17T18:33:42.670Z,10.57
2023-06-17T18:36:44.961Z,9.47
2023-06-17T18:39:47.502Z,9.67
2023-06-17T18:42:49.810Z,10.57
2023-06-17T18:45:51.981Z,11.30
2023-06-17T18:48:54.160Z,11.25
2023-06-17T18:51:56.320Z,9.93
2023-06-17T18:54:58.589Z,9.73
2023-06-17T18:58:00.745Z,9.18
2023-06-17T19:01:03.273Z,9.30
2023-06-17T19:04:05.514Z,9.25
2023-06-17T19:07:07.668Z,9.37
2023-06-17T19:10:10.351Z,9.27
2023-06-17T19:13:12.539Z,9.90
2023-06-17T19:16:14.792Z,10.50
2023-06-17T19:19:17.292Z,10.05
2023-06-17T19:22:19.548Z,10.63
2023-06-17T19:25:21.793Z,9.93
2023-06-17T19:28:24.403Z,10.10
2023-06-17T19:31:26.592Z,10.95
2023-06-17T19:34:28.835Z,10.93
2023-06-17T19:37:31.022Z,10.87
2023-06-17T19:40:33.397Z,11.53
2023-06-17T19:43:36.852Z,11.60
2023-06-17T19:46:40.263Z,12.60
2023-06-17T19:49:42.524Z,12.40
2023-06-17T19:52:45.284Z,12.03
2023-06-17T19:55:47.384Z,13.50
2023-06-17T19:58:49.596Z,13.05
2023-06-17T20:01:52.095Z,12.73
2023-06-17T20:04:54.316Z,12.52
2023-06-17T20:07:56.473Z,13.50
2023-06-17T20:10:58.675Z,13.10
2023-06-17T20:14:00.916Z,12.45
2023-06-17T20:17:03.548Z,12.18
2023-06-17T20:20:06.252Z,13.23
2023-06-17T20:23:08.523Z,12.90
2023-06-17T20:26:10.792Z,14.00
2023-06-17T20:29:13.001Z,13.23
2023-06-17T20:32:20.019Z,12.93
2023-06-17T20:35:22.552Z,13.32
2023-06-17T20:38:24.764Z,13.17
2023-06-17T20:41:27.829Z,13.97
2023-06-17T20:44:31.289Z,12.73
2023-06-17T20:47:33.446Z,14.23
2023-06-17T20:50:35.553Z,13.15
2023-06-17T20:53:37.776Z,13.63
2023-06-17T20:56:42.713Z,13.50
2023-06-17T20:59:44.958Z,14.32
2023-06-17T21:02:47.430Z,15.20
2023-06-17T21:05:49.654Z,14.88
2023-06-17T21:08:52.034Z,14.93
2023-06-17T21:11:54.216Z,14.67
2023-06-17T21:14:56.534Z,15.40
2023-06-17T21:17:58.980Z,13.40
2023-06-17T21:21:01.154Z,15.00
2023-06-17T21:24:03.440Z,14.03
2023-06-17T21:27:10.387Z,13.17
2023-06-17T21:30:12.718Z,13.25
2023-06-17T21:33:14.834Z,14.32
2023-06-17T21:36:17.351Z,13.40
2023-06-17T21:39:19.490Z,13.63
2023-06-17T21:42:21.712Z,13.20
2023-06-17T21:45:23.896Z,12.82
2023-06-17T21:48:26.333Z,12.25
2023-06-17T21:51:28.620Z,13.50
2023-06-17T21:54:30.829Z,12.80
2023-06-17T21:57:33.010Z,13.13
2023-06-17T22:00:35.177Z,13.73
2023-06-17T22:03:37.377Z,13.13
2023-06-17T22:06:39.665Z,14.15
2023-06-17T22:09:41.827Z,14.37
2023-06-17T22:12:43.992Z,14.13
2023-06-17T22:15:46.123Z,14.25
2023-06-17T22:18:48.321Z,15.20
2023-06-17T22:21:50.620Z,14.82
2023-06-17T22:24:52.840Z,14.00
2023-06-17T22:27:56.703Z,15.10
2023-06-17T22:30:58.881Z,15.38
2023-06-17T22:34:01.340Z,16.13
2023-06-17T22:37:03.917Z,15.43
2023-06-17T22:40:07.743Z,15.77
2023-06-17T22:43:10.030Z,15.53
2023-06-17T22:46:12.388Z,15.93
2023-06-17T22:49:14.600Z,15.88
2023-06-17T22:52:16.996Z,16.45
2023-06-17T22:55:19.438Z,15.70
2023-06-17T22:58:21.682Z,17.07
2023-06-17T23:01:23.827Z,19.30
2023-06-17T23:04:26.078Z,17.08
2023-06-17T23:07:28.261Z,18.70
2023-06-17T23:10:30.554Z,18.70
2023-06-17T23:13:32.680Z,16.70
2023-06-17T23:16:35.138Z,19.35
2023-06-17T23:19:37.433Z,20.35
2023-06-17T23:22:39.653Z,20.98
2023-06-17T23:25:43.073Z,21.63
2023-06-17T23:28:45.644Z,21.23
2023-06-17T23:31:47.781Z,22.08
2023-06-17T23:34:51.785Z,19.83
2023-06-17T23:37:53.988Z,17.20
2023-06-17T23:40:56.289Z,16.50
2023-06-17T23:43:58.483Z,17.53
2023-06-17T23:47:04.339Z,18.05
2023-06-17T23:50:08.526Z,16.80
2023-06-17T23:53:12.817Z,17.75
2023-06-17T23:56:15.653Z,16.47
2023-06-17T23:59:18.128Z,15.90
